Latest Coastal Weather Observations for Kingfish B

IDV60701

Issued at 9:31 pm EDT Thursday 29 January 2015 (issued every 10 minutes, with the page automatically refreshed every 10 minutes)

About coastal observations | Map of coastal stations | Coastal observations for VIC | Marine services | Other Formats
Station Details ID: 400139 Name: KINGFISH B (PLATFORM) Lat: -38.60 Lon: 148.19 Height: 31.4 m
Data from the previous 72 hours. | See also: Recent months for locations in Victoria
Date/Time
EDT
Temp

°C
Wind Pressure Rain
since 9am
mm
Weather Cloud Vis
km
Sea
Height
m
Swell
Dir
 
Speed
knots
Gust
knots
hPa Trend Height
m
Period
s
Dir
29/09:20pm 16.9 SSE 22 28 1017.2 - - - - - - - - -
29/09:10pm 16.8 SE 23 29 1017.2 - - - - - - - - -
29/09:00pm 16.9 SE 23 31 1017.1 - - - - - - - - -
29/08:50pm 16.9 SE 24 28 1017.3 - - - - - - - - -
29/08:40pm 16.9 SE 23 29 1017.2 - - - - - - - - -
29/08:30pm 16.9 SSE 22 28 1017.4 - - - - - - - - -
29/08:20pm 16.9 SE 24 30 1017.3 - - - - - - - - -
29/08:10pm 17.0 SE 24 29 1017.2 - - - - - - - - -
29/08:00pm 16.9 SE 25 31 1017.1 - - - - - - - - -
29/07:50pm 16.9 SE 25 30 1017.3 - - - - - - - - -
29/07:40pm 16.9 SE 26 31 1017.3 - - - - - - - - -
29/07:30pm 17.0 SE 24 31 1017.3 - - - - - - - - -
29/07:20pm 16.9 SE 26 32 1017.3 - - - - - - - - -
29/07:10pm 17.0 SE 24 30 1017.3 - - - - - - - - -
29/07:00pm 17.0 SE 24 30 1017.4 - - - - - - - - -
29/06:50pm 17.0 SE 23 28 1017.4 - - - - - - - - -
29/06:40pm 17.1 SE 22 28 1017.3 - - - - - - - - -
29/06:30pm 17.1 SE 23 28 1017.4 - - - - - - - - -
29/06:20pm 17.1 SE 22 27 1017.6 - - - - - - - - -
29/06:10pm 17.1 SE 23 28 1017.6 - - - - - - - - -
29/06:00pm 17.0 SE 25 32 1017.6 - - - - - - - - -
29/05:50pm 17.0 SE 23 30 1017.8 - - - - - - - - -
29/05:40pm 17.0 SSE 24 29 1017.9 - - - - - - - - -
29/05:30pm 16.6 SE 22 27 1017.8 - - - - - - - - -
29/05:20pm 15.9 SSE 21 25 1017.9 - - - - - - - - -
29/05:10pm 15.6 SE 22 27 1017.8 - - - - - - - - -
29/05:00pm 15.7 SE 21 25 1017.8 - - - - - - - - -
29/04:50pm 15.7 SE 20 26 1017.8 - - - - - - - - -
29/04:40pm 15.5 SE 21 26 1017.8 - - - - - - - - -
29/04:30pm 15.5 SE 20 25 1017.7 - - - - - - - - -
29/04:20pm 15.1 SE 16 24 1017.8 - - - - - - - - -
29/04:10pm 14.8 ESE 7 9 1017.7 - - - - - - - - -
29/04:00pm 14.4 ESE 11 16 1017.8 - - - - - - - - -
29/03:50pm 14.4 ESE 18 22 1018.0 - - - - - - - - -
29/03:40pm 14.1 SE 19 24 1018.3 - - - - - - - - -
29/03:30pm 13.7 SE 18 26 1018.5 - - - - - - - - -
29/03:20pm 13.5 SE 21 26 1018.6 - - - - - - - - -
29/03:10pm 14.4 SSE 22 33 1018.6 - - - - - - - - -
29/03:00pm 17.0 SE 18 25 1018.1 - - - - - - - - -
29/02:50pm 16.9 SE 15 20 1018.1 - - - - - - - - -
29/02:30pm 16.0 SSE 13 16 1018.4 - - - - - - - - -
29/02:20pm 15.8 SSE 16 21 1018.6 - - - - - - - - -
29/02:10pm 15.8 SSE 19 23 1018.7 - - - - - - - - -
29/02:00pm 15.8 SE 22 26 1018.7 - - - - - - - - -
29/01:50pm 16.8 SSE 20 26 1018.6 - - - - - - - - -
29/01:40pm 16.6 SSE 19 24 1018.6 - - - - - - - - -
29/01:30pm 16.3 SSE 16 20 1018.6 - - - - - - - - -
29/01:20pm 16.1 SSE 16 23 1018.6 - - - - - - - - -
29/01:10pm 15.6 SSE 15 19 1018.5 - - - - - - - - -
29/01:00pm 14.6 SSE 12 20 1018.5 - - - - - - - - -
29/12:50pm 15.6 SSE 16 27 1018.7 - - - - - - - - -
29/12:40pm 16.9 SSE 14 18 1018.6 - - - - - - - - -
29/12:30pm 16.6 SSE 14 17 1018.7 - - - - - - - - -
29/12:20pm 16.5 SSE 18 21 1018.9 - - - - - - - - -
29/12:10pm 16.7 SSE 18 22 1018.9 - - - - - - - - -
29/12:00pm 17.0 SSE 17 22 1018.7 - - - - - - - - -
29/11:50am 17.2 SSE 12 16 1018.6 - - - - - - - - -
29/11:40am 17.1 SSE 15 20 1018.7 - - - - - - - - -
29/11:30am 17.1 SSE 15 20 1018.6 - - - - - - - - -
29/11:20am 17.0 SSE 15 20 1018.5 - - - - - - - - -
29/11:10am 16.7 SSE 14 18 1018.7 - - - - - - - - -
29/11:00am 16.3 S 15 18 1018.8 - - - - - - - - -
29/10:50am 16.3 SSE 15 19 1018.8 - - - - - - - - -
29/10:40am 16.3 SSE 14 18 1018.7 - - - - - - - - -
29/10:30am 16.4 SSE 17 21 1018.7 - - - - - - - - -
29/10:20am 16.5 SSE 17 21 1018.8 - - - - - - - - -
29/10:10am 16.5 SSE 15 21 1018.7 - - - - - - - - -
29/10:00am 16.5 SSE 15 19 1018.7 - - - - - - - - -
29/09:50am 16.6 SSE 16 21 1018.7 - - - - - - - - -
29/09:40am 16.7 SSE 16 21 1018.7 - - - - - - - - -
29/09:30am 16.7 SSE 16 19 1018.6 - - - - - - - - -
29/09:20am 16.7 SSE 17 21 1018.6 - - - - - - - - -
29/09:10am 16.7 SE 17 21 1018.4 - - - - - - - - -
29/09:00am 16.5 SSE 17 21 1018.4 - - - - - - - - -
29/08:50am 16.4 SSE 20 27 1018.4 - - - - - - - - -
29/08:40am 16.6 SSE 21 26 1018.4 - - - - - - - - -
29/08:20am 16.3 SE 19 25 1018.1 - - - - - - - - -
29/08:10am 16.2 SSE 18 24 1018.2 - - - - - - - - -
29/08:00am 16.3 SSE 20 25 1018.2 - - - - - - - - -
29/07:50am 16.1 SSE 17 23 1018.0 - - - - - - - - -
29/07:40am 16.2 SE 17 23 1017.9 - - - - - - - - -
29/07:30am 16.1 SE 17 22 1017.8 - - - - - - - - -
29/07:20am 15.6 SE 16 22 1017.7 - - - - - - - - -
29/07:10am 15.3 SE 15 23 1017.7 - - - - - - - - -
29/07:00am 15.7 SSE 19 24 1018.0 - - - - - - - - -
29/06:50am 16.1 SSE 19 24 1018.0 - - - - - - - - -
29/06:30am 16.0 SE 19 26 1017.8 - - - - - - - - -
29/06:20am 15.9 SE 21 25 1017.8 - - - - - - - - -
29/06:10am 15.9 SSE 20 24 1018.0 - - - - - - - - -
29/06:00am 16.0 SSE 20 25 1018.0 - - - - - - - - -
29/05:50am 16.2 SSE 21 26 1018.0 - - - - - - - - -
29/05:40am 16.2 SE 22 27 1017.9 - - - - - - - - -
29/05:30am 16.2 SE 22 28 1017.9 - - - - - - - - -
29/05:20am 16.2 SE 22 27 1017.9 - - - - - - - - -
29/05:10am 16.2 SE 22 29 1017.9 - - - - - - - - -
29/05:00am 15.8 SE 24 30 1017.9 - - - - - - - - -
29/04:50am 15.3 SE 19 27 1018.0 - - - - - - - - -
29/04:30am 15.8 SE 23 30 1018.2 - - - - - - - - -
29/04:10am 15.8 SE 21 26 1018.4 - - - - - - - - -
29/04:00am 15.7 SE 23 27 1018.4 - - - - - - - - -
29/03:50am 16.0 SE 22 29 1018.5 - - - - - - - - -
29/03:40am 16.1 SE 19 24 1018.5 - - - - - - - - -
29/03:30am 16.1 SE 21 25 1018.7 - - - - - - - - -
29/03:20am 15.8 SE 17 25 1018.7 - - - - - - - - -
29/03:10am 15.1 ESE 14 19 1018.5 - - - - - - - - -
29/03:00am 14.9 ESE 19 23 1018.7 - - - - - - - - -
29/02:50am 14.5 ESE 19 23 1018.8 - - - - - - - - -
29/02:40am 14.6 ESE 21 31 1018.8 - - - - - - - - -
29/02:30am 14.2 SE 20 25 1019.1 - - - - - - - - -
29/02:20am 15.0 SE 17 24 1019.0 - - - - - - - - -
29/02:10am 15.4 SE 18 26 1019.1 - - - - - - - - -
29/02:00am 14.8 SE 22 30 1019.2 - - - - - - - - -
29/01:50am 15.9 SE 22 26 1019.4 - - - - - - - - -
29/01:40am 15.3 SE 17 23 1019.5 - - - - - - - - -
29/01:30am 16.0 SE 23 29 1019.7 - - - - - - - - -
29/01:20am 16.6 SE 19 24 1019.7 - - - - - - - - -
29/01:10am 16.5 SE 20 23 1019.7 - - - - - - - - -
29/01:00am 16.4 SE 20 25 1019.8 - - - - - - - - -
29/12:40am 16.3 SE 22 27 1019.8 - - - - - - - - -
29/12:30am 16.1 SE 20 27 1019.9 - - - - - - - - -
29/12:20am 16.2 SE 25 31 1020.0 - - - - - - - - -
29/12:10am 16.0 SE 19 24 1019.9 - - - - - - - - -
29/12:00am 16.2 ESE 21 27 1019.9 - - - - - - - - -
 
Date/Time
EDT
Temp

°C
Wind Pressure Rain
since 9am
mm
Weather Cloud Vis
km
Sea
Height
m
Swell
Dir
 
Speed
knots
Gust
knots
hPa Trend Height
m
Period
s
Dir
28/11:50pm 16.5 SE 19 23 1020.2 - - - - - - - - -
28/11:40pm 16.5 SE 21 25 1020.3 - - - - - - - - -
28/11:30pm 16.3 SE 20 26 1020.3 - - - - - - - - -
28/11:20pm 15.8 SE 18 24 1020.3 - - - - - - - - -
28/11:10pm 14.9 ESE 19 23 1020.2 - - - - - - - - -
28/11:00pm 13.9 ESE 17 23 1020.2 - - - - - - - - -
28/10:50pm 15.6 SE 25 34 1020.7 - - - - - - - - -
28/10:40pm 16.4 SE 18 23 1020.5 - - - - - - - - -
28/10:30pm 16.5 SE 18 24 1020.3 - - - - - - - - -
28/10:20pm 16.4 SE 18 23 1020.1 - - - - - - - - -
28/10:00pm 16.5 SE 19 23 1020.2 - - - - - - - - -
28/09:50pm 16.4 SE 19 25 1020.1 - - - - - - - - -
28/09:40pm 16.4 SE 19 23 1020.2 - - - - - - - - -
28/09:30pm 16.4 SE 18 22 1020.2 - - - - - - - - -
28/09:20pm 16.5 SE 18 22 1020.1 - - - - - - - - -
28/09:10pm 16.5 SE 19 23 1020.1 - - - - - - - - -
28/09:00pm 16.5 SE 18 21 1020.0 - - - - - - - - -
28/08:50pm 16.5 SE 18 22 1020.0 - - - - - - - - -
28/08:30pm 16.7 ESE 21 24 1019.9 - - - - - - - - -
28/08:20pm 16.9 SE 19 23 1019.8 - - - - - - - - -
28/08:10pm 17.0 SE 18 22 1019.7 - - - - - - - - -
28/08:00pm 17.0 SE 18 22 1019.7 - - - - - - - - -
28/07:50pm 17.0 SE 19 22 1019.6 - - - - - - - - -
28/07:40pm 17.1 SE 18 22 1019.5 - - - - - - - - -
28/07:30pm 17.1 SE 18 23 1019.6 - - - - - - - - -
28/07:20pm 17.1 SE 19 23 1019.6 - - - - - - - - -
28/07:10pm 17.2 SE 18 22 1019.6 - - - - - - - - -
28/07:00pm 17.1 SE 19 24 1019.5 - - - - - - - - -
28/06:50pm 17.2 SE 18 23 1019.5 - - - - - - - - -
28/06:40pm 17.2 SE 18 22 1019.4 - - - - - - - - -
28/06:30pm 17.2 SE 19 24 1019.5 - - - - - - - - -
28/06:20pm 17.3 SE 19 23 1019.4 - - - - - - - - -
28/06:10pm 17.3 ESE 17 21 1019.3 - - - - - - - - -
28/06:00pm 17.2 ESE 17 20 1019.3 - - - - - - - - -
28/05:50pm 17.2 ESE 18 20 1019.3 - - - - - - - - -
28/05:40pm 17.3 SE 18 22 1019.3 - - - - - - - - -
28/05:30pm 17.3 SE 18 21 1019.3 - - - - - - - - -
28/05:20pm 17.3 SE 18 21 1019.4 - - - - - - - - -
28/05:10pm 17.4 SE 17 21 1019.5 - - - - - - - - -
28/05:00pm 17.3 SE 18 22 1019.6 - - - - - - - - -
28/04:50pm 17.3 SE 18 23 1019.7 - - - - - - - - -
28/04:40pm 17.3 SE 18 22 1019.8 - - - - - - - - -
28/04:30pm 17.5 SE 17 23 1019.7 - - - - - - - - -
28/04:20pm 17.4 SE 19 22 1019.7 - - - - - - - - -
28/04:10pm 17.6 SE 18 22 1019.7 - - - - - - - - -
28/04:00pm 17.6 SE 17 20 1019.7 - - - - - - - - -
28/03:40pm 17.7 SE 16 20 1019.7 - - - - - - - - -
28/03:30pm 17.6 ESE 18 22 1019.6 - - - - - - - - -
28/03:20pm 17.6 ESE 18 23 1019.5 - - - - - - - - -
28/03:10pm 17.6 SE 18 23 1019.5 - - - - - - - - -
28/03:00pm 17.6 SE 19 21 1019.5 - - - - - - - - -
28/02:50pm 17.6 ESE 19 24 1019.5 - - - - - - - - -
28/02:40pm 17.6 ESE 19 23 1019.4 - - - - - - - - -
28/02:30pm 17.7 ESE 19 23 1019.5 - - - - - - - - -
28/02:20pm 17.8 ESE 20 24 1019.5 - - - - - - - - -
28/02:10pm 17.8 ESE 19 24 1019.5 - - - - - - - - -
28/02:00pm 17.8 ESE 18 22 1019.4 - - - - - - - - -
28/01:50pm 17.8 ESE 19 22 1019.3 - - - - - - - - -
28/01:40pm 17.8 ESE 20 23 1019.3 - - - - - - - - -
28/01:30pm 17.8 ESE 19 23 1019.3 - - - - - - - - -
28/01:20pm 17.8 ESE 20 24 1019.3 - - - - - - - - -
28/01:10pm 17.8 ESE 20 23 1019.3 - - - - - - - - -
28/01:00pm 17.8 ESE 20 24 1019.2 - - - - - - - - -
28/12:50pm 17.7 ESE 21 25 1019.2 - - - - - - - - -
28/12:30pm 17.8 ESE 22 26 1019.2 - - - - - - - - -
28/12:20pm 17.9 ESE 21 24 1019.2 - - - - - - - - -
28/12:00pm 17.8 ESE 19 23 1019.2 - - - - - - - - -
28/11:50am 17.4 ESE 19 24 1019.1 - - - - - - - - -
28/11:40am 17.5 ESE 18 23 1019.0 - - - - - - - - -
28/11:30am 17.5 ESE 17 20 1019.1 - - - - - - - - -
28/11:20am 17.2 E 16 19 1019.1 - - - - - - - - -
28/11:10am 17.7 ESE 18 21 1019.1 - - - - - - - - -
28/11:00am 17.7 ESE 17 21 1019.2 - - - - - - - - -
28/10:50am 17.8 ESE 17 20 1019.1 - - - - - - - - -
28/10:40am 17.5 ESE 19 21 1019.0 - - - - - - - - -
28/10:30am 17.6 ESE 19 21 1019.0 - - - - - - - - -
28/10:20am 17.5 ESE 19 22 1018.9 - - - - - - - - -
28/10:10am 17.7 SE 20 24 1018.8 - - - - - - - - -
28/10:00am 18.0 SE 19 23 1018.7 - - - - - - - - -
28/09:50am 18.4 ESE 15 19 1018.6 - - - - - - - - -
28/09:40am 18.5 ESE 15 18 1018.5 - - - - - - - - -
28/09:30am 18.4 ESE 14 18 1018.4 - - - - - - - - -
28/09:20am 18.1 ESE 14 17 1018.4 - - - - - - - - -
28/09:10am 18.4 ESE 13 15 1018.3 - - - - - - - - -
28/09:00am 18.5 ESE 13 16 1018.1 - - - - - - - - -
28/08:50am 18.3 ESE 15 17 1018.0 - - - - - - - - -
28/08:40am 18.7 ESE 14 17 1017.8 - - - - - - - - -
28/08:30am 18.3 ESE 13 16 1017.7 - - - - - - - - -
28/08:20am 18.4 ESE 12 16 1017.7 - - - - - - - - -
28/08:10am 18.1 ESE 14 16 1017.6 - - - - - - - - -
28/08:00am 18.1 ESE 13 16 1017.5 - - - - - - - - -
28/07:50am 17.9 ESE 13 16 1017.4 - - - - - - - - -
28/07:40am 17.6 ESE 12 16 1017.4 - - - - - - - - -
28/07:30am 17.5 SE 12 15 1017.5 - - - - - - - - -
28/07:20am 17.4 ESE 13 15 1017.4 - - - - - - - - -
28/07:10am 17.2 ESE 13 16 1017.3 - - - - - - - - -
28/07:00am 17.2 SE 15 20 1017.2 - - - - - - - - -
28/06:50am 17.1 SE 16 19 1017.1 - - - - - - - - -
28/06:40am 17.2 SE 15 18 1017.0 - - - - - - - - -
28/06:30am 17.2 SE 15 19 1016.9 - - - - - - - - -
28/06:20am 17.3 SE 15 19 1016.9 - - - - - - - - -
28/06:10am 17.3 SE 14 18 1016.8 - - - - - - - - -
28/06:00am 17.3 SE 15 20 1016.8 - - - - - - - - -
28/05:50am 17.2 SE 15 20 1016.7 - - - - - - - - -
28/05:40am 17.2 SE 14 18 1016.8 - - - - - - - - -
28/05:30am 17.1 SE 14 17 1016.9 - - - - - - - - -
28/05:20am 17.2 SE 13 16 1016.9 - - - - - - - - -
28/05:10am 17.3 SE 14 17 1016.8 - - - - - - - - -
28/04:50am 17.1 SE 12 16 1016.8 - - - - - - - - -
28/04:40am 16.9 SSE 11 14 1017.0 - - - - - - - - -
28/04:30am 16.8 SSE 10 14 1017.1 - - - - - - - - -
28/04:20am 16.6 SSE 11 14 1017.2 - - - - - - - - -
28/04:10am 16.6 SSE 10 14 1017.3 - - - - - - - - -
28/04:00am 16.6 SSE 11 13 1017.3 - - - - - - - - -
28/03:50am 16.5 SSE 10 13 1017.4 - - - - - - - - -
28/03:40am 16.5 SSE 12 14 1017.5 - - - - - - - - -
28/03:30am 16.5 SSE 11 13 1017.5 - - - - - - - - -
28/03:10am 16.5 SSE 11 14 1017.6 - - - - - - - - -
28/03:00am 16.5 SSE 11 14 1017.6 - - - - - - - - -
28/02:50am 16.4 SSE 12 15 1017.7 - - - - - - - - -
28/02:40am 16.4 SSE 11 14 1017.8 - - - - - - - - -
28/02:30am 16.4 SSE 11 13 1017.8 - - - - - - - - -
28/02:20am 16.4 SSE 9 12 1017.9 - - - - - - - - -
28/02:10am 16.4 SSE 9 11 1017.9 - - - - - - - - -
28/02:00am 16.4 SSE 8 11 1017.9 - - - - - - - - -
28/01:50am 16.4 SSE 8 10 1017.9 - - - - - - - - -
28/01:40am 16.4 SSE 7 9 1018.0 - - - - - - - - -
28/01:30am 16.4 SSE 6 7 1017.9 - - - - - - - - -
28/01:20am 16.4 SSE 5 8 1018.0 - - - - - - - - -
28/01:10am 16.4 SSE 6 8 1018.1 - - - - - - - - -
28/01:00am 16.4 SSE 6 8 1018.0 - - - - - - - - -
28/12:50am 16.4 S 7 10 1018.0 - - - - - - - - -
28/12:30am 16.5 SSE 6 9 1018.0 - - - - - - - - -
28/12:20am 16.5 SSE 6 8 1017.9 - - - - - - - - -
28/12:10am 16.5 SSE 7 9 1017.9 - - - - - - - - -
28/12:00am 16.5 SSE 6 8 1017.9 - - - - - - - - -
 
Date/Time
EDT
Temp

°C
Wind Pressure Rain
since 9am
mm
Weather Cloud Vis
km
Sea
Height
m
Swell
Dir
 
Speed
knots
Gust
knots
hPa Trend Height
m
Period
s
Dir
27/11:50pm 16.5 SSE 6 8 1018.0 - - - - - - - - -
27/11:40pm 16.5 SSE 5 7 1018.0 - - - - - - - - -
27/11:30pm 16.5 SSE 5 8 1017.9 - - - - - - - - -
27/11:20pm 16.6 SSE 6 8 1018.0 - - - - - - - - -
27/11:10pm 16.6 SSE 6 8 1017.9 - - - - - - - - -
27/11:00pm 16.6 SSE 5 7 1017.8 - - - - - - - - -
27/10:50pm 16.6 SSE 5 7 1017.8 - - - - - - - - -
27/10:40pm 16.7 SSE 5 6 1017.7 - - - - - - - - -
27/10:30pm 16.7 SSE 5 7 1017.7 - - - - - - - - -
27/10:20pm 16.9 SSE 4 6 1017.7 - - - - - - - - -
27/10:10pm 16.9 SE 2 4 1017.5 - - - - - - - - -
27/10:00pm 16.9 SE 2 4 1017.4 - - - - - - - - -
27/09:50pm 16.8 SE 1 4 1017.3 - - - - - - - - -
27/09:40pm 16.8 SE 1 3 1017.2 - - - - - - - - -
27/09:30pm 16.8 SE 2 4 1017.2 - - - - - - - - -
27/09:20pm 16.8 SE 1 3 1017.1 - - - - - - - - -
27/09:10pm 16.8 SE 1 3 1017.0 - - - - - - - - -
27/09:00pm 16.8 SE 2 4 1017.0 - - - - - - - - -
27/08:50pm 16.8 SE 2 5 1016.9 - - - - - - - - -
27/08:40pm 16.8 SE 2 5 1016.8 - - - - - - - - -
27/08:30pm 16.8 SE 1 3 1016.7 - - - - - - - - -
27/08:20pm 16.8 SE 1 3 1016.6 - - - - - - - - -
27/08:10pm 16.8 SE 2 5 1016.5 - - - - - - - - -
27/08:00pm 16.8 SE 2 4 1016.5 - - - - - - - - -
27/07:40pm 16.8 SE 2 5 1016.5 - - - - - - - - -
27/07:30pm 16.8 SE 2 6 1016.5 - - - - - - - - -
27/07:20pm 16.7 SE 2 5 1016.5 - - - - - - - - -
27/07:10pm 16.7 SSE 2 4 1016.6 - - - - - - - - -
27/07:00pm 16.7 SE 2 4 1016.5 - - - - - - - - -
27/06:50pm 16.7 SE 2 4 1016.5 - - - - - - - - -
27/06:40pm 16.7 SE 3 6 1016.5 - - - - - - - - -
27/06:30pm 16.8 SE 3 7 1016.5 - - - - - - - - -
27/06:20pm 16.7 SSE 3 6 1016.5 - - - - - - - - -
27/06:10pm 16.7 SE 3 6 1016.5 - - - - - - - - -
27/06:00pm 16.7 SE 3 6 1016.5 - - - - - - - - -
27/05:50pm 16.7 SE 2 5 1016.5 - - - - - - - - -
27/05:40pm 16.7 SE 3 6 1016.5 - - - - - - - - -
27/05:30pm 16.7 SE 3 5 1016.6 - - - - - - - - -
27/05:20pm 16.6 SE 3 5 1016.6 - - - - - - - - -
27/05:10pm 16.6 SE 4 7 1016.7 - - - - - - - - -
27/05:00pm 16.6 SE 4 7 1016.8 - - - - - - - - -
27/04:50pm 16.6 SSE 4 6 1016.8 - - - - - - - - -
27/04:40pm 16.6 SSE 4 8 1016.8 - - - - - - - - -
27/04:30pm 16.6 SSE 4 6 1016.7 - - - - - - - - -
27/04:20pm 16.5 SE 3 6 1016.7 - - - - - - - - -
27/04:10pm 16.5 SE 3 6 1016.6 - - - - - - - - -
27/04:00pm 16.5 SE 3 5 1016.7 - - - - - - - - -
27/03:50pm 16.4 SE 3 6 1016.7 - - - - - - - - -
27/03:40pm 16.4 SSE 4 6 1016.8 - - - - - - - - -
27/03:30pm 16.5 SE 3 6 1016.8 - - - - - - - - -
27/03:20pm 16.5 SE 4 6 1016.8 - - - - - - - - -
27/03:10pm 16.4 SE 4 7 1016.8 - - - - - - - - -
27/03:00pm 16.4 SE 4 6 1016.9 - - - - - - - - -
27/02:50pm 16.4 SE 3 6 1016.9 - - - - - - - - -
27/02:40pm 16.3 SE 4 6 1017.0 - - - - - - - - -
27/02:30pm 16.3 SE 3 6 1017.1 - - - - - - - - -
27/02:20pm 16.3 SSE 3 5 1017.2 - - - - - - - - -
27/02:10pm 16.2 SSE 4 6 1017.3 - - - - - - - - -
27/02:00pm 16.2 SSE 4 6 1017.4 - - - - - - - - -
27/01:50pm 16.2 SSE 4 7 1017.5 - - - - - - - - -
27/01:30pm 16.3 SSE 4 8 1017.4 - - - - - - - - -
27/01:20pm 16.3 SSE 2 5 1017.4 - - - - - - - - -
27/01:10pm 16.3 SSE 2 3 1017.4 - - - - - - - - -
27/01:00pm 16.3 SSE 2 4 1017.4 - - - - - - - - -
27/12:50pm 16.3 SSE 2 4 1017.4 - - - - - - - - -
27/12:40pm 16.3 SSE 1 3 1017.3 - - - - - - - - -
27/12:30pm 16.4 SE 1 4 1017.3 - - - - - - - - -
27/12:20pm 16.3 SE 1 4 1017.2 - - - - - - - - -
27/12:10pm 16.3 SE 2 4 1017.2 - - - - - - - - -
27/12:00pm 16.3 SSE 2 4 1017.2 - - - - - - - - -
27/11:50am 16.3 SE 2 4 1017.2 - - - - - - - - -
27/11:40am 16.3 SSE 2 5 1017.2 - - - - - - - - -
27/11:30am 16.3 SE 1 4 1017.2 - - - - - - - - -
27/11:20am 16.3 SE 1 3 1017.2 - - - - - - - - -
27/11:10am 16.2 SE 2 4 1017.3 - - - - - - - - -
27/11:00am 16.2 SE 2 4 1017.1 - - - - - - - - -
27/10:50am 16.1 SE 2 3 1017.1 - - - - - - - - -
27/10:30am 16.0 SE 1 3 1017.3 - - - - - - - - -
27/10:20am 16.0 CALM 0 3 1017.4 - - - - - - - - -
27/10:10am 16.0 SE 1 3 1017.3 - - - - - - - - -
27/10:00am 16.0 SE 1 3 1017.3 - - - - - - - - -
27/09:50am 16.0 CALM 0 3 1017.2 - - - - - - - - -
27/09:40am 15.9 CALM 0 3 1017.2 - - - - - - - - -
27/09:30am 15.9 SE 1 4 1017.1 - - - - - - - - -
27/09:20am 15.9 CALM 0 2 1017.0 - - - - - - - - -
27/09:10am 15.9 SE 1 3 1016.9 - - - - - - - - -
27/09:00am 15.8 SE 1 3 1016.9 - - - - - - - - -
27/08:50am 15.8 CALM 0 2 1016.8 - - - - - - - - -
27/08:40am 15.7 SE 1 2 1016.6 - - - - - - - - -
27/08:30am 15.7 SE 1 3 1016.6 - - - - - - - - -
27/08:20am 15.7 SE 1 3 1016.5 - - - - - - - - -
27/08:10am 15.7 SE 1 3 1016.4 - - - - - - - - -
27/08:00am 15.7 SE 1 3 1016.4 - - - - - - - - -
27/07:40am 15.6 CALM 0 2 1016.3 - - - - - - - - -
27/07:30am 15.6 SE 1 4 1016.2 - - - - - - - - -
27/07:20am 15.6 SE 1 3 1016.1 - - - - - - - - -
27/07:10am 15.6 SE 1 2 1016.1 - - - - - - - - -
27/07:00am 15.5 SE 1 3 1016.1 - - - - - - - - -
27/06:50am 15.5 SSE 1 3 1016.1 - - - - - - - - -
27/06:40am 15.5 CALM 0 2 1016.0 - - - - - - - - -
27/06:30am 15.5 CALM 0 1 1016.0 - - - - - - - - -
27/06:20am 15.5 CALM 0 0 1016.1 - - - - - - - - -
27/06:10am 15.5 CALM 0 2 1016.1 - - - - - - - - -
27/05:50am 15.4 CALM 0 1 1016.1 - - - - - - - - -
27/05:40am 15.4 CALM 0 0 1016.2 - - - - - - - - -
27/05:30am 15.5 CALM 0 1 1016.3 - - - - - - - - -
27/05:20am 15.5 CALM 0 0 1016.3 - - - - - - - - -
27/05:10am 15.4 CALM 0 0 1016.3 - - - - - - - - -
27/05:00am 15.5 CALM 0 0 1016.4 - - - - - - - - -
27/04:50am 15.5 CALM 0 1 1016.4 - - - - - - - - -
27/04:40am 15.5 CALM 0 0 1016.5 - - - - - - - - -
27/04:30am 15.5 CALM 0 0 1016.6 - - - - - - - - -
27/04:20am 15.4 CALM 0 0 1016.7 - - - - - - - - -
27/04:10am 15.2 CALM 0 0 1016.8 - - - - - - - - -
27/04:00am 15.2 CALM 0 0 1016.9 - - - - - - - - -
27/03:50am 15.3 CALM 0 0 1016.8 - - - - - - - - -
27/03:40am 15.2 CALM 0 0 1016.8 - - - - - - - - -
27/03:30am 15.0 CALM 0 0 1016.9 - - - - - - - - -
27/03:20am 15.1 CALM 0 0 1017.0 - - - - - - - - -
27/03:10am 15.2 CALM 0 0 1017.1 - - - - - - - - -
27/03:00am 15.8 CALM 0 0 1017.1 - - - - - - - - -
27/02:50am 15.2 CALM 0 0 1017.2 - - - - - - - - -
27/02:40am 15.2 CALM 0 0 1017.3 - - - - - - - - -
27/02:30am 14.9 CALM 0 0 1017.4 - - - - - - - - -
27/02:20am 15.0 CALM 0 0 1017.6 - - - - - - - - -
27/02:10am 15.1 CALM 0 0 1017.7 - - - - - - - - -
27/02:00am 15.5 CALM 0 0 1017.7 - - - - - - - - -
27/01:50am 15.5 CALM 0 0 1017.7 - - - - - - - - -
27/01:40am 15.6 CALM 0 0 1017.7 - - - - - - - - -
27/01:20am 15.7 CALM 0 0 1017.9 - - - - - - - - -
27/01:10am 15.8 CALM 0 0 1017.9 - - - - - - - - -
27/01:00am 16.3 CALM 0 0 1017.9 - - - - - - - - -
27/12:50am 17.4 CALM 0 0 1017.9 - - - - - - - - -
27/12:30am 15.7 CALM 0 0 1018.0 - - - - - - - - -
27/12:20am 15.7 CALM 0 0 1018.0 - - - - - - - - -
27/12:10am 15.8 CALM 0 0 1018.1 - - - - - - - - -
27/12:00am 16.3 CALM 0 0 1018.1 - - - - - - - - -
 
Date/Time
EDT
Temp

°C
Wind Pressure Rain
since 9am
mm
Weather Cloud Vis
km
Sea
Height
m
Swell
Dir
 
Speed
knots
Gust
knots
hPa Trend Height
m
Period
s
Dir
26/11:50pm 15.5 CALM 0 0 1018.1 - - - - - - - - -
26/11:40pm 15.7 CALM 0 0 1018.2 - - - - - - - - -
26/11:30pm 15.7 CALM 0 0 1018.2 - - - - - - - - -
26/11:20pm 15.7 CALM 0 0 1018.1 - - - - - - - - -
26/11:10pm 15.8 CALM 0 0 1018.0 - - - - - - - - -
26/11:00pm 15.7 CALM 0 0 1018.1 - - - - - - - - -
26/10:50pm 15.8 CALM 0 0 1018.1 - - - - - - - - -
26/10:40pm 15.9 CALM 0 1 1018.1 - - - - - - - - -
26/10:30pm 15.9 CALM 0 0 1017.9 - - - - - - - - -
26/10:20pm 15.9 CALM 0 3 1017.8 - - - - - - - - -
26/10:10pm 15.9 CALM 0 1 1017.7 - - - - - - - - -
26/10:00pm 15.9 SSE 2 5 1017.6 - - - - - - - - -
26/09:50pm 16.0 S 1 3 1017.5 - - - - - - - - -
26/09:40pm 16.0 S 1 4 1017.4 - - - - - - - - -

Other Formats:

Comma delimited format used in spreadsheet applications
http://www.bom.gov.au/fwo/IDV60701/IDV60701.55039.axf

JavaScript Object Notation format (JSON) in row-major order
http://www.bom.gov.au/fwo/IDV60701/IDV60701.55039.json